Wednesday, September 19, 2018, 3:12 AM GMT
Back to Local

CZBF, Bathurst Airport Aviation Weather Reporting Station

Location: , , Canada Lat: 47.633
Local Time: 3:12 AM GMT ( 3:12 GMT) Lon: -65.75
Time Zone: GMT Elev: 193 ft

Show me the last for .
Show Decoded

2018-09-19 03:00 METAR CZBF 190300Z AUTO 06010G20KT 9SM OVC030 09/04 A3004 RMK SLP175 =
2018-09-19 02:00 METAR CZBF 190200Z AUTO 05012G22KT 9SM OVC028 10/04 A3003 RMK SLP174 =
2018-09-19 01:00 METAR CZBF 190100Z AUTO 07010G20KT 020V080 9SM OVC026 10/05 A3004 RMK SLP176 =
2018-09-19 00:42 METAR CZBF 190042Z AUTO 06009G27KT 9SM OVC026 10/05 A3003 RMK SLP174 =
2018-09-19 00:00 METAR CZBF 190000Z AUTO 07012G23KT 9SM OVC022 10/06 A3001 RMK SLP166 =
2018-09-18 23:00 METAR CZBF 182300Z AUTO 06013G23KT 9SM OVC024 10/06 A3001 RMK PRESRR SLP167 =
2018-09-18 22:00 METAR CZBF 182200Z AUTO 06010G20KT 9SM OVC020 10/06 A2999 RMK SLP158 =
2018-09-18 21:00 METAR CZBF 182100Z AUTO 07013G25KT 020V090 9SM OVC016 10/07 A2996 RMK SLP150 =
2018-09-18 20:00 METAR CZBF 182000Z AUTO 06011G22KT 010V090 9SM BKN012 OVC021 10/08 A2995 RMK
                 SLP145 =
2018-09-18 19:09 METAR CZBF 181909Z AUTO 06012G22KT 010V090 9SM BKN010 OVC015 10/08 A2995 RMK
                 SLP145 =
2018-09-18 19:00 METAR CZBF 181900Z AUTO 06013G22KT 9SM -RA BKN010 OVC015 10/08 A2994 RMK SLP142
                 =
2018-09-18 18:57 METAR CZBF 181857Z AUTO 06012G22KT 020V090 9SM -RA BKN010 OVC013 10/09 A2995 RMK
                 SLP143 =
2018-09-18 18:56 METAR CZBF 181856Z AUTO 05010G20KT 020V090 9SM BKN010 OVC013 10/09 A2995 RMK
                 SLP143 =
2018-09-18 18:54 METAR CZBF 181854Z AUTO 06010G24KT 020V090 9SM BKN008 OVC013 10/09 A2995 RMK
                 SLP143 =
2018-09-18 18:48 METAR CZBF 181848Z AUTO 06012G24KT 6SM -RA BR BKN008 OVC013 09/08 A2995 RMK
                 SLP143 =
2018-09-18 18:37 METAR CZBF 181837Z AUTO 05012G23KT 020V090 5SM -RA BR OVC008 09/09 A2994 RMK
                 SLP142 =
2018-09-18 18:09 METAR CZBF 181809Z AUTO 07014G26KT 6SM -RA BR SCT010 BKN015 OVC019 10/08 A2993
                 RMK SLP137 =
2018-09-18 18:00 METAR CZBF 181800Z AUTO 06011G23KT 9SM BKN013 OVC018 10/08 A2994 RMK SLP140 =
2018-09-18 17:40 METAR CZBF 181740Z AUTO 06011G24KT 9SM OVC013 10/08 A2994 RMK SLP140 =
2018-09-18 17:10 METAR CZBF 181710Z AUTO 06010G22KT 6SM -RA BR SCT008 OVC015 09/08 A2995 RMK
                 SLP144 =
2018-09-18 17:02 METAR CZBF 181702Z AUTO 05009G18KT 030V090 3SM -RA BR SCT008 BKN014 OVC021 09/08
                 A2994 RMK SLP142 =
2018-09-18 17:00 METAR CZBF 181700Z AUTO 06008G22KT 030V090 3SM -RA BR BKN008 BKN014 OVC021 10/09
                 A2994 RMK SLP141 =
2018-09-18 16:58 METAR CZBF 181658Z AUTO 06009G22KT 3SM -RA BR BKN008 BKN014 OVC021 10/09 A2994
                 RMK PRESRR SLP141 =
2018-09-18 16:50 METAR CZBF 181650Z AUTO 07012G27KT 030V090 4SM -RA BR SCT008 BKN016 OVC021 10/09
                 A2993 RMK SLP138 =
2018-09-18 16:20 METAR CZBF 181620Z AUTO 06010G20KT 020V090 3SM -RA BR BKN008 BKN015 BKN019
                 OVC024 10/09 A2992 RMK SLP134 =
2018-09-18 16:14 METAR CZBF 181614Z AUTO 06011G20KT 020V090 3SM RA BR FEW006 BKN010 BKN015 OVC022
                 10/09 A2992 RMK SLP134 =
2018-09-18 16:08 METAR CZBF 181608Z AUTO 06010G20KT 3SM RA BR BKN008 BKN015 OVC022 09/09 A2992
                 RMK SLP135 =
2018-09-18 16:02 METAR CZBF 181602Z AUTO 06014G20KT 010V080 3SM RA BR FEW006 SCT010 BKN015 OVC022
                 09/08 A2992 RMK SLP136 =
2018-09-18 16:00 METAR CZBF 181600Z AUTO 05011G19KT 010V080 3SM RA BR BKN008 BKN015 OVC022 09/08
                 A2993 RMK SLP137 =
2018-09-18 15:57 METAR CZBF 181557Z AUTO 05012G19KT 010V090 3SM RA BR BKN008 BKN015 OVC020 09/09
                 A2993 RMK SLP138 =
2018-09-18 15:54 METAR CZBF 181554Z AUTO 05008G18KT 020V090 2 1/2SM RA BR BKN008 OVC016 10/09
                 A2993 RMK SLP138 =
2018-09-18 15:51 METAR CZBF 181551Z AUTO 06007G19KT 020V090 2 1/2SM -RA BR SCT007 BKN010 OVC016
                 10/09 A2993 RMK SLP137 =
2018-09-18 15:47 METAR CZBF 181547Z AUTO 06011G19KT 2 1/2SM -RA BR BKN007 OVC014 09/09 A2992 RMK
                 SLP135 =
2018-09-18 15:37 METAR CZBF 181537Z AUTO 06010G23KT 030V090 3SM RA BR BKN007 OVC016 09/09 A2992
                 RMK SLP135 =
2018-09-18 15:33 METAR CZBF 181533Z AUTO 06009G23KT 030V090 2 1/2SM RA BR BKN007 OVC014 09/09
                 A2992 RMK SLP135 =
2018-09-18 15:17 METAR CZBF 181517Z AUTO 05012G23KT 020V090 2 1/2SM +RA BR BKN007 OVC014 09/09
                 A2992 RMK SLP133 =
2018-09-18 15:10 METAR CZBF 181510Z AUTO 05008G19KT 3SM +RA BR BKN009 OVC014 09/09 A2991 RMK
                 SLP131 =
2018-09-18 15:05 METAR CZBF 181505Z AUTO 05012G19KT 3SM RA BR BKN009 OVC014 09/08 A2991 RMK
                 SLP130 =
2018-09-18 15:00 METAR CZBF 181500Z AUTO 04007G19KT 3SM RA BR OVC012 09/08 A2991 RMK SLP130 =
2018-09-18 14:47 METAR CZBF 181447Z AUTO 06010G22KT 030V090 5SM -RA BR OVC012 09/08 A2991 RMK
                 SLP130 =
2018-09-18 14:19 METAR CZBF 181419Z AUTO 06012G25KT 020V090 6SM -RA BR OVC012 09/08 A2989 RMK
                 SLP125 =
2018-09-18 14:14 METAR CZBF 181414Z AUTO 06011G23KT 3SM -RA BR BKN009 OVC014 09/08 A2989 RMK
                 SLP123 =
2018-09-18 14:07 METAR CZBF 181407Z AUTO 05014G24KT 020V080 2SM -RA BR BKN011 OVC014 09/08 A2988
                 RMK SLP121 =
2018-09-18 14:04 METAR CZBF 181404Z AUTO 06010G24KT 020V080 2 1/4SM -RA BR OVC011 09/09 A2988 RMK
                 SLP121 =
2018-09-18 14:00 METAR CZBF 181400Z AUTO 06012G24KT 010V080 2SM -RA BR BKN007 OVC011 09/09 A2988
                 RMK PRESRR SLP121 =
2018-09-18 13:56 METAR CZBF 181356Z AUTO 05012G24KT 010V080 2SM -RA BR BKN007 OVC011 09/09 A2988
                 RMK SLP120 =
2018-09-18 13:55 METAR CZBF 181355Z AUTO 05012G24KT 010V080 2SM -RA BR OVC009 09/09 A2988 RMK
                 PRESRR SLP120 =
2018-09-18 13:00 METAR CZBF 181300Z AUTO 05012G26KT 1 1/4SM -RA BR OVC005 10/10 A2985 RMK PRESRR
                 SLP112 =
2018-09-18 12:27 METAR CZBF 181227Z AUTO 06008G17KT 030V100 1 3/4SM -RA BR BKN005 OVC013 11/11
                 A2984 RMK VIS VRB 1-3 SLP107 =
2018-09-18 12:20 METAR CZBF 181220Z AUTO 06008G18KT 2SM -RA BR BKN005 OVC013 11/11 A2984 RMK
                 PRESRR SLP106 =
2018-09-18 12:00 METAR CZBF 181200Z AUTO 07009G17KT 030V090 1 3/4SM -RA BR BKN005 OVC012 11/11
                 A2982 RMK SLP102 =
2018-09-18 11:38 METAR CZBF 181138Z AUTO 06011G17KT 1 3/4SM -RA BR OVC005 11/11 A2982 RMK VIS VRB
                 1 1/2-2 1/2 PRESRR SLP101 =
2018-09-18 11:20 METAR CZBF 181120Z AUTO 05006KT 2 1/2SM -RA BR OVC005 12/11 A2981 RMK VIS VRB 1
                 1/2-3 SLP096 =
2018-09-18 11:16 METAR CZBF 181116Z AUTO 07008KT 030V090 2 1/2SM BR OVC005 12/11 A2980 RMK SLP095
                 =
2018-09-18 11:11 METAR CZBF 181111Z AUTO 07007KT 020V090 5SM BR OVC005 12/11 A2981 RMK SLP096 =
2018-09-18 11:00 METAR CZBF 181100Z AUTO 05007KT 020V080 6SM BR OVC005 12/11 A2981 RMK SLP096 =
2018-09-18 10:00 METAR CZBF 181000Z AUTO VRB02KT 9SM OVC005 11/11 A2974 RMK PRESRR SLP073 =
2018-09-18 09:32 METAR CZBF 180932Z AUTO 11009KT 060V120 9SM OVC005 12/11 A2973 RMK PRESFR SLP068
                 =
2018-09-18 09:21 METAR CZBF 180921Z AUTO 09006KT 6SM -RA BR OVC003 12/11 A2974 RMK PRESFR SLP072
                 =
2018-09-18 09:17 METAR CZBF 180917Z AUTO 08006KT 010V100 3SM -RA BR OVC003 11/11 A2975 RMK PRESFR
                 SLP076 =
2018-09-18 09:13 METAR CZBF 180913Z AUTO 06005KT 010V090 2SM -RA BR OVC003 11/11 A2975 RMK PRESFR
                 SLP078 =
2018-09-18 09:00 METAR CZBF 180900Z AUTO 05006KT 010V090 1 1/2SM -RA BR OVC003 11/11 A2977 RMK
                 PRESFR SLP084 =
2018-09-18 08:00 METAR CZBF 180800Z AUTO 05006KT 010V070 1 1/4SM -RA BR OVC003 12/12 A2978 RMK
                 SLP085 =
2018-09-18 07:16 METAR CZBF 180716Z AUTO 03007KT 010V070 1 1/4SM -RA BR OVC003 12/12 A2976 RMK
                 SLP078 =
2018-09-18 07:00 METAR CZBF 180700Z AUTO 04004KT 020V090 1 1/2SM BR OVC003 12/12 A2975 RMK SLP077
                 =
2018-09-18 06:00 METAR CZBF 180600Z AUTO 36004KT 340V050 1 1/4SM BR OVC003 12/12 A2977 RMK SLP082
                 =
2018-09-18 05:04 METAR CZBF 180504Z AUTO 09003KT 1 3/4SM BR OVC005 12/12 A2978 RMK SLP087 =
2018-09-18 05:00 METAR CZBF 180500Z AUTO 08003KT 2SM BR OVC005 12/12 A2978 RMK SLP087 =
2018-09-18 04:51 METAR CZBF 180451Z AUTO 07004KT 2 1/4SM BR OVC005 12/12 A2979 RMK SLP089 =
2018-09-18 04:36 METAR CZBF 180436Z AUTO 07003KT 040V120 5SM BR OVC005 12/12 A2979 RMK SLP090 =
2018-09-18 04:33 METAR CZBF 180433Z AUTO 09005KT 040V120 7SM OVC005 12/12 A2979 RMK SLP089 =
2018-09-18 04:16 METAR CZBF 180416Z AUTO 05003KT 010V100 7SM -RA OVC003 12/12 A2980 RMK SLP093 =
2018-09-18 04:13 METAR CZBF 180413Z AUTO 05003KT 020V100 6SM BR OVC003 12/12 A2980 RMK SLP093 =
2018-09-18 04:00 METAR CZBF 180400Z AUTO 07004KT 4SM BR OVC003 12/12 A2980 RMK SLP092 =
2018-09-18 03:51 METAR CZBF 180351Z AUTO 07005KT 3SM BR OVC003 12/12 A2980 RMK SLP093 =
2018-09-18 03:25 METAR CZBF 180325Z AUTO 08005KT 2SM -RA BR OVC003 12/12 A2981 RMK VIS VRB 1
                 1/2-2 1/2 PRESFR SLP095 =
2018-09-18 03:14 METAR CZBF 180314Z AUTO 06004KT 010V070 1 1/2SM -RA BR OVC003 12/12 A2981 RMK
                 SLP098 =

Support USWX by starting your Amazon purchase here.